Time;durP1;ratioP1;P1;durP2;ratioP2;P2;SDS_P1;SDS_P2;PMS_P1;PMS_P2;Temp;Humidity;BMP_temperature;BMP_pressure;BME280_temperature;BME280_humidity;BME280_pressure;Samples;Min_cycle;Max_cycle;Signal;HPM_P1;HPM_P2
2022/11/04 00:01:29;;;;;;;5.78;3.70;;;;;;;11.93;75.24;95703.78;6216082;23;20013;-82
2022/11/04 00:03:56;;;;;;;6.80;3.80;;;;;;;11.91;75.31;95708.41;6217054;23;20027;-82
2022/11/04 00:06:24;;;;;;;4.60;3.55;;;;;;;11.92;75.30;95715.25;6217571;23;20390;-82
2022/11/04 00:08:55;;;;;;;4.03;3.67;;;;;;;11.93;75.48;95716.06;6228156;23;20076;-83
2022/11/04 00:14:10;;;;;;;5.15;3.67;;;;;;;11.91;75.43;95734.53;6234627;23;20024;-83
2022/11/04 00:19:23;;;;;;;6.60;4.18;;;;;;;11.88;75.47;95732.38;6215339;23;20228;-82
2022/11/04 00:30:10;;;;;;;4.63;3.60;;;;;;;11.84;75.47;95704.22;6215967;23;20032;-82
2022/11/04 00:35:23;;;;;;;5.78;4.55;;;;;;;11.82;75.30;95699.22;6216758;23;20456;-82
2022/11/04 00:37:51;;;;;;;4.32;3.92;;;;;;;11.81;75.17;95710.69;6216589;23;20017;-82
2022/11/04 00:40:20;;;;;;;6.95;4.00;;;;;;;11.80;75.19;95703.84;6216658;23;20028;-82
2022/11/04 00:42:48;;;;;;;5.82;4.22;;;;;;;11.79;75.51;95704.88;6216502;23;20016;-82
2022/11/04 00:45:15;;;;;;;4.18;3.58;;;;;;;11.82;75.12;95711.47;6216384;23;20032;-82
2022/11/04 00:47:43;;;;;;;10.13;4.45;;;;;;;11.81;75.02;95712.50;6216197;23;20027;-82
2022/11/04 00:50:11;;;;;;;4.15;3.58;;;;;;;11.81;74.98;95709.88;6215533;23;20366;-82
2022/11/04 00:52:38;;;;;;;4.63;3.17;;;;;;;11.81;75.06;95710.69;6216167;23;20031;-83
2022/11/04 00:55:07;;;;;;;3.65;3.35;;;;;;;11.82;74.93;95709.66;6215905;23;20020;-83
2022/11/04 00:57:36;;;;;;;5.13;3.33;;;;;;;11.83;74.65;95716.50;6215652;23;20495;-82
2022/11/04 01:00:04;;;;;;;5.55;3.40;;;;;;;11.82;74.69;95717.50;6215342;23;20016;-82
2022/11/04 01:02:32;;;;;;;4.45;3.28;;;;;;;11.84;74.49;95727.75;6216793;23;20445;-82
2022/11/04 01:05:00;;;;;;;5.13;3.22;;;;;;;11.84;74.81;95739.00;6216824;23;20043;-82
2022/11/04 01:07:27;;;;;;;3.92;3.15;;;;;;;11.84;74.58;95746.03;6217126;23;20023;-82
2022/11/04 01:09:55;;;;;;;3.33;2.90;;;;;;;11.83;74.30;95742.63;6216795;23;20024;-82
2022/11/04 01:12:23;;;;;;;3.33;3.03;;;;;;;11.84;74.28;95740.81;6216201;23;20100;-82
2022/11/04 01:14:52;;;;;;;3.35;2.65;;;;;;;11.83;74.01;95737.41;6216530;23;20017;-82
2022/11/04 01:17:19;;;;;;;5.43;3.15;;;;;;;11.83;73.94;95742.63;6216364;23;20027;-82
2022/11/04 01:19:47;;;;;;;2.90;2.38;;;;;;;11.84;73.73;95741.59;6216480;23;20021;-82
2022/11/04 01:22:14;;;;;;;2.72;2.38;;;;;;;11.84;73.63;95739.00;6216420;23;20012;-82
2022/11/04 01:24:42;;;;;;;2.75;2.42;;;;;;;11.85;73.45;95745.84;6216842;23;20025;-82
2022/11/04 01:27:13;;;;;;;3.95;2.22;;;;;;;11.86;73.29;95751.84;6216373;23;20012;-82
2022/11/04 01:29:41;;;;;;;3.78;2.45;;;;;;;11.86;73.11;95747.44;6216374;23;20047;-82
2022/11/04 01:32:10;;;;;;;2.28;1.80;;;;;;;11.86;72.90;95750.03;6216106;23;20016;-83
2022/11/04 01:34:38;;;;;;;2.80;1.98;;;;;;;11.86;72.79;95752.66;6216737;23;20017;-82
2022/11/04 01:37:10;;;;;;;2.83;2.40;;;;;;;11.86;72.60;95757.88;6216200;23;20047;-82
2022/11/04 01:39:38;;;;;;;3.67;1.88;;;;;;;11.86;72.68;95754.47;6216295;23;20023;-82
2022/11/04 01:42:05;;;;;;;2.38;1.98;;;;;;;11.86;72.36;95762.31;6216151;23;20023;-82
2022/11/04 01:44:54;;;;;;;2.17;1.63;;;;;;;11.85;72.30;95764.13;6216306;23;20016;-82
2022/11/04 01:47:28;;;;;;;2.30;1.67;;;;;;;11.86;72.40;95772.75;6215813;23;20021;-82
2022/11/04 01:50:00;;;;;;;2.17;1.63;;;;;;;11.85;71.86;95769.34;6216002;23;20452;-82
2022/11/04 01:52:32;;;;;;;2.47;1.88;;;;;;;11.86;72.41;95770.16;6215584;23;20044;-82
2022/11/04 01:55:05;;;;;;;1.65;1.48;;;;;;;11.87;72.13;95763.91;6215598;23;20043;-82
2022/11/04 01:57:36;;;;;;;2.33;2.05;;;;;;;11.87;71.97;95763.91;6215839;23;20016;-82
2022/11/04 02:00:07;;;;;;;1.42;1.33;;;;;;;11.87;72.04;95749.03;6215832;23;20020;-82
2022/11/04 02:02:44;;;;;;;2.47;1.90;;;;;;;11.85;71.83;95745.84;6215987;23;20068;-82
2022/11/04 02:05:11;;;;;;;1.70;1.60;;;;;;;11.85;71.94;95743.22;6215489;23;20024;-82
2022/11/04 02:07:39;;;;;;;2.05;1.13;;;;;;;11.85;71.72;95740.63;6216010;23;20411;-82
2022/11/04 02:10:07;;;;;;;3.53;1.83;;;;;;;11.84;71.91;95746.84;6215352;23;20024;-82
2022/11/04 02:12:49;;;;;;;1.67;1.50;;;;;;;11.84;71.92;95736.38;6215513;23;20021;-82
2022/11/04 02:15:23;;;;;;;2.63;1.60;;;;;;;11.86;72.20;95741.41;6215913;23;20441;-82
2022/11/04 02:18:06;;;;;;;1.77;1.40;;;;;;;11.88;72.02;95736.81;6215697;23;20032;-82
2022/11/04 02:20:55;;;;;;;1.63;1.52;;;;;;;11.89;72.11;95741.78;6216045;23;20032;-82
2022/11/04 02:23:41;;;;;;;2.25;1.48;;;;;;;11.92;72.09;95741.38;6216010;23;20119;-82
2022/11/04 02:26:41;;;;;;;1.90;1.15;;;;;;;11.93;71.78;95737.75;6215649;23;20025;-82
2022/11/04 02:29:26;;;;;;;1.50;1.40;;;;;;;11.94;71.90;95746.41;6215628;23;20028;-82
2022/11/04 02:31:59;;;;;;;1.38;1.27;;;;;;;11.93;71.85;95742.97;6215845;23;20020;-82
2022/11/04 02:34:34;;;;;;;2.90;1.35;;;;;;;11.92;71.36;95746.63;6215668;23;20025;-82
2022/11/04 02:37:12;;;;;;;1.25;1.15;;;;;;;11.91;71.46;95742.38;6215620;23;20027;-82
2022/11/04 02:39:51;;;;;;;1.20;1.10;;;;;;;11.91;71.54;95745.00;6215683;23;20031;-82
2022/11/04 02:42:26;;;;;;;1.00;0.90;;;;;;;11.90;71.30;95753.88;6217373;23;20020;-82
2022/11/04 02:45:02;;;;;;;1.67;1.13;;;;;;;11.90;71.28;95743.41;6217432;23;20027;-82
2022/11/04 02:47:32;;;;;;;1.30;1.20;;;;;;;11.90;71.21;95750.47;6217471;23;20017;-82
2022/11/04 02:50:07;;;;;;;2.38;0.95;;;;;;;11.90;71.38;95755.69;6214188;22;20021;-80
2022/11/04 02:52:41;;;;;;;1.60;1.45;;;;;;;11.90;71.82;95750.47;6216086;23;20020;-80
2022/11/04 02:55:18;;;;;;;1.65;0.88;;;;;;;11.91;71.89;95752.03;6215972;23;20396;-81
2022/11/04 02:57:50;;;;;;;2.00;1.50;;;;;;;11.92;71.80;95751.06;6215716;23;20483;-80
2022/11/04 03:00:20;;;;;;;2.53;1.77;;;;;;;11.90;71.83;95751.25;6239144;23;20051;-80
2022/11/04 03:02:52;;;;;;;10.68;2.10;;;;;;;11.90;72.12;95748.63;6236820;23;20017;-80
2022/11/04 03:05:25;;;;;;;1.58;1.42;;;;;;;11.89;72.06;95752.25;6218700;23;20448;-81
2022/11/04 03:07:56;;;;;;;1.67;1.50;;;;;;;11.89;72.00;95757.47;6215786;23;20288;-80
2022/11/04 03:10:28;;;;;;;2.67;2.05;;;;;;;11.87;72.24;95749.03;6216144;23;20020;-80
2022/11/04 03:13:00;;;;;;;2.57;1.97;;;;;;;11.88;72.34;95755.09;6216004;23;20023;-80
2022/11/04 03:15:34;;;;;;;1.63;1.52;;;;;;;11.87;72.41;95758.66;6216118;23;20286;-81
2022/11/04 03:18:10;;;;;;;2.42;1.80;;;;;;;11.85;72.40;95766.75;6215827;23;20056;-80
2022/11/04 03:20:40;;;;;;;2.75;1.98;;;;;;;11.84;72.21;95767.75;6215837;23;20025;-81
2022/11/04 03:23:10;;;;;;;3.17;1.60;;;;;;;11.82;72.30;95767.16;6217877;23;20457;-81
2022/11/04 03:25:41;;;;;;;2.13;1.60;;;;;;;11.80;72.34;95768.38;6226940;23;20280;-81
2022/11/04 03:28:24;;;;;;;4.35;1.70;;;;;;;11.79;72.61;95767.56;6230227;23;20040;-80
2022/11/04 03:30:59;;;;;;;2.17;1.40;;;;;;;11.79;72.50;95764.16;6224804;23;20027;-81
2022/11/04 03:33:33;;;;;;;4.35;1.65;;;;;;;11.78;72.40;95760.72;6225249;23;20099;-80
2022/11/04 03:36:01;;;;;;;2.25;1.55;;;;;;;11.77;72.23;95764.38;6228807;23;20016;-81
2022/11/04 03:38:29;;;;;;;1.40;1.30;;;;;;;11.74;72.18;95759.53;6221728;23;20017;-81
2022/11/04 03:40:59;;;;;;;3.72;1.60;;;;;;;11.73;72.33;95771.03;6218007;23;20352;-81
2022/11/04 03:43:28;;;;;;;1.63;1.52;;;;;;;11.73;72.31;95768.41;6219063;23;20059;-81
2022/11/04 03:45:57;;;;;;;2.08;1.42;;;;;;;11.72;72.32;95758.97;6218906;23;20467;-81
2022/11/04 03:48:25;;;;;;;6.88;2.15;;;;;;;11.71;72.28;95763.38;6218115;23;20024;-81
2022/11/04 03:50:52;;;;;;;3.60;1.27;;;;;;;11.70;72.32;95769.63;6218183;23;20024;-81
2022/11/04 03:53:23;;;;;;;1.20;1.08;;;;;;;11.70;72.52;95774.06;6217902;23;20021;-81
2022/11/04 03:56:06;;;;;;;2.10;1.40;;;;;;;11.69;72.48;95772.44;6217868;23;20016;-81
2022/11/04 03:58:43;;;;;;;2.13;1.67;;;;;;;11.68;72.80;95778.69;6218085;23;20067;-81
2022/11/04 04:01:24;;;;;;;1.67;1.55;;;;;;;11.65;72.73;95777.28;6217682;23;20345;-81
2022/11/04 04:03:59;;;;;;;1.83;1.52;;;;;;;11.64;72.58;95780.91;6217367;23;20048;-81
2022/11/04 04:06:31;;;;;;;1.77;1.67;;;;;;;11.62;72.43;95792.56;6217624;23;20027;-81
2022/11/04 04:09:05;;;;;;;3.65;1.58;;;;;;;11.61;72.51;95801.41;6217864;23;20024;-80
2022/11/04 04:11:42;;;;;;;1.63;1.15;;;;;;;11.61;72.26;95809.25;6217958;23;20016;-81
2022/11/04 04:17:11;;;;;;;1.70;0.95;;;;;;;11.58;71.27;95817.50;6217785;23;20017;-80
2022/11/04 04:19:42;;;;;;;1.52;0.88;;;;;;;11.53;70.83;95816.31;6217192;23;20016;-81
2022/11/04 04:22:14;;;;;;;1.08;0.80;;;;;;;11.51;69.88;95814.91;6216824;23;20016;-81
2022/11/04 04:27:34;;;;;;;0.85;0.82;;;;;;;11.48;70.10;95795.25;6216716;23;20465;-81
2022/11/04 04:30:05;;;;;;;1.77;0.65;;;;;;;11.47;70.07;95785.78;6218198;23;20468;-81
2022/11/04 04:32:39;;;;;;;3.60;0.98;;;;;;;11.47;70.48;95769.31;6217420;23;20017;-81
2022/11/04 04:37:52;;;;;;;1.40;0.93;;;;;;;11.44;70.10;95799.28;6203512;23;20472;-80
2022/11/04 04:46:02;;;;;;;1.65;0.93;;;;;;;11.38;69.24;95802.72;6220792;22;20005;-81
2022/11/04 04:48:52;;;;;;;1.60;1.23;;;;;;;11.36;69.06;95789.06;6242346;22;20008;-80
2022/11/04 04:51:21;;;;;;;2.35;0.75;;;;;;;11.32;69.00;95798.31;6236430;22;20015;-81
2022/11/04 04:53:49;;;;;;;1.10;1.00;;;;;;;11.30;69.13;95801.13;6239672;22;20025;-80
2022/11/04 04:56:17;;;;;;;1.20;0.80;;;;;;;11.25;68.95;95811.38;6227702;23;20016;-81
2022/11/04 04:58:45;;;;;;;2.97;0.80;;;;;;;11.23;69.23;95810.78;6223095;23;20040;-81
2022/11/04 05:01:12;;;;;;;1.17;0.80;;;;;;;11.20;69.01;95810.41;6215143;23;20028;-80
2022/11/04 05:03:41;;;;;;;1.27;0.82;;;;;;;11.18;69.53;95796.75;6215376;23;20024;-80
2022/11/04 05:06:11;;;;;;;0.95;0.70;;;;;;;11.18;69.25;95792.31;6214821;23;20099;-80
2022/11/04 05:08:39;;;;;;;1.80;0.80;;;;;;;11.19;68.74;95803.56;6214671;23;20027;-81
2022/11/04 05:11:07;;;;;;;1.55;0.70;;;;;;;11.20;69.34;95810.41;6216024;23;20078;-81
2022/11/04 05:13:34;;;;;;;2.05;0.70;;;;;;;11.23;68.61;95809.97;6214962;23;20021;-81
2022/11/04 05:16:04;;;;;;;4.13;1.10;;;;;;;11.23;68.15;95792.50;6215229;23;20013;-81
2022/11/04 05:18:32;;;;;;;1.67;0.55;;;;;;;11.23;68.13;95781.25;6215079;23;20115;-79
2022/11/04 05:21:03;;;;;;;5.72;0.85;;;;;;;11.23;68.13;95776.03;6214876;23;20028;-81
2022/11/04 05:23:31;;;;;;;1.38;0.63;;;;;;;11.23;68.05;95782.06;6215550;23;20356;-80
2022/11/04 05:25:59;;;;;;;2.35;0.80;;;;;;;11.24;68.62;95786.28;6215064;23;20025;-80
2022/11/04 05:28:26;;;;;;;2.05;0.95;;;;;;;11.21;68.22;95781.47;6214932;23;20021;-81
2022/11/04 05:30:54;;;;;;;1.33;0.73;;;;;;;11.17;68.18;95753.38;6214859;23;20021;-80
2022/11/04 05:33:21;;;;;;;1.38;0.93;;;;;;;11.10;68.37;95732.50;6215171;23;20383;-80
2022/11/04 05:35:49;;;;;;;6.10;0.70;;;;;;;11.08;68.49;95735.31;6214400;23;20483;-81
2022/11/04 05:38:18;;;;;;;2.13;0.57;;;;;;;11.09;68.49;95742.16;6214469;23;20020;-80
2022/11/04 05:40:45;;;;;;;1.45;0.38;;;;;;;11.10;68.66;95759.41;6214948;23;20028;-80
2022/11/04 05:43:13;;;;;;;2.30;0.90;;;;;;;11.12;68.55;95778.28;6214840;23;20021;-80
2022/11/04 05:45:41;;;;;;;3.50;1.27;;;;;;;11.14;68.73;95775.47;6214690;23;20480;-81
2022/11/04 05:48:10;;;;;;;1.17;0.63;;;;;;;11.18;68.88;95762.81;6232659;22;20004;-81
2022/11/04 05:50:41;;;;;;;3.25;1.83;;;;;;;11.17;68.85;95753.38;6235937;22;20008;-81
2022/11/04 05:53:10;;;;;;;2.25;1.52;;;;;;;11.18;68.95;95770.66;6244015;22;20008;-80
2022/11/04 05:55:39;;;;;;;2.03;1.85;;;;;;;11.17;69.13;95789.91;6239969;22;20020;-81
2022/11/04 05:58:06;;;;;;;6.28;4.03;;;;;;;11.15;68.94;95792.75;6219222;22;20035;-80
2022/11/04 06:00:34;;;;;;;3.95;2.15;;;;;;;11.12;69.30;95795.75;6215363;23;20024;-81
2022/11/04 06:03:02;;;;;;;4.35;1.83;;;;;;;11.13;70.22;95805.19;6218434;23;20020;-81
2022/11/04 06:05:30;;;;;;;3.50;1.55;;;;;;;11.14;70.29;95794.53;6212109;23;20079;-81
2022/11/04 06:07:58;;;;;;;3.60;1.80;;;;;;;11.16;70.02;95788.31;6213359;23;20043;-80
2022/11/04 06:10:26;;;;;;;1.83;1.38;;;;;;;11.14;69.78;95798.97;6214501;23;20027;-81
2022/11/04 06:12:55;;;;;;;3.40;1.25;;;;;;;11.07;68.94;95811.22;6215665;23;20024;-81
2022/11/04 06:15:23;;;;;;;5.30;1.50;;;;;;;11.01;68.88;95819.88;6214509;23;20020;-80
2022/11/04 06:17:50;;;;;;;1.92;1.30;;;;;;;11.01;69.60;95818.06;6214752;23;20334;-79
2022/11/04 06:20:18;;;;;;;1.80;0.73;;;;;;;10.98;68.73;95822.91;6213933;23;20020;-80
2022/11/04 06:22:46;;;;;;;5.45;1.80;;;;;;;10.93;68.67;95826.09;6214206;23;20024;-80
2022/11/04 06:25:14;;;;;;;5.30;1.98;;;;;;;10.88;68.90;95815.47;6221465;23;20028;-81
2022/11/04 06:27:44;;;;;;;2.03;1.30;;;;;;;10.82;68.78;95809.28;6219487;23;20092;-78
2022/11/04 06:30:13;;;;;;;2.38;1.67;;;;;;;10.79;69.21;95809.66;6214644;23;20036;-78
2022/11/04 06:32:41;;;;;;;2.08;1.30;;;;;;;10.79;69.53;95806.25;6227626;23;20055;-80
2022/11/04 06:35:09;;;;;;;2.70;1.63;;;;;;;10.81;69.80;95823.31;6234532;23;20017;-81
2022/11/04 06:37:37;;;;;;;2.83;1.65;;;;;;;10.82;69.96;95829.31;6235467;23;20051;-81
2022/11/04 06:40:07;;;;;;;3.28;2.00;;;;;;;10.84;70.07;95838.53;6236903;23;20001;-81
2022/11/04 06:42:35;;;;;;;4.18;1.42;;;;;;;10.84;69.86;95840.34;6237154;23;20068;-81
2022/11/04 06:45:02;;;;;;;4.63;2.00;;;;;;;10.80;69.35;95831.31;6227511;23;20023;-81
2022/11/04 06:47:31;;;;;;;4.75;2.22;;;;;;;10.77;69.81;95829.13;6229470;23;20012;-81
2022/11/04 06:49:59;;;;;;;4.45;1.85;;;;;;;10.74;70.10;95816.50;6233926;23;20016;-81
2022/11/04 06:52:26;;;;;;;2.88;1.45;;;;;;;10.75;70.50;95807.66;6237142;23;20021;-82
2022/11/04 06:54:54;;;;;;;2.15;1.50;;;;;;;10.76;70.09;95798.81;6239280;22;20068;-80
2022/11/04 06:57:21;;;;;;;3.63;1.40;;;;;;;10.78;70.60;95797.63;6240685;22;20008;-80
2022/11/04 06:59:49;;;;;;;5.47;1.85;;;;;;;10.79;69.85;95788.00;6245043;22;20008;-80
2022/11/04 07:02:17;;;;;;;2.38;1.60;;;;;;;10.81;70.74;95786.78;6216465;22;20020;-79
2022/11/04 07:04:46;;;;;;;4.15;1.67;;;;;;;10.80;69.76;95779.97;6216165;23;20100;-80
2022/11/04 07:07:13;;;;;;;3.33;1.75;;;;;;;10.80;70.21;95773.94;6215953;23;20023;-80
2022/11/04 07:09:41;;;;;;;2.70;1.42;;;;;;;10.83;70.50;95765.72;6215282;23;20476;-80
2022/11/04 07:12:08;;;;;;;2.53;1.20;;;;;;;10.88;70.61;95760.66;6215607;23;20029;-80
2022/11/04 07:14:36;;;;;;;2.78;1.40;;;;;;;10.89;70.10;95772.72;6216091;23;20017;-78
2022/11/04 07:17:04;;;;;;;4.18;1.95;;;;;;;10.88;70.36;95776.31;6216256;23;20021;-80
2022/11/04 07:19:31;;;;;;;4.10;1.55;;;;;;;10.88;70.61;95777.13;6214954;23;20025;-81
2022/11/04 07:22:00;;;;;;;1.58;1.30;;;;;;;10.88;70.56;95776.31;6215584;23;20025;-80
2022/11/04 07:24:27;;;;;;;5.78;1.90;;;;;;;10.84;70.15;95775.91;6216103;23;20021;-80
2022/11/04 07:26:55;;;;;;;5.15;1.80;;;;;;;10.81;70.16;95778.94;6216004;23;20028;-80
2022/11/04 07:29:24;;;;;;;9.88;3.10;;;;;;;10.77;70.03;95779.56;6215275;23;20024;-80
2022/11/04 07:31:51;;;;;;;6.25;3.60;;;;;;;10.75;70.42;95787.59;6215573;23;20075;-81
2022/11/04 07:34:19;;;;;;;6.32;2.55;;;;;;;10.72;69.99;95788.78;6216294;23;20028;-79
2022/11/04 07:36:46;;;;;;;6.63;2.35;;;;;;;10.68;69.78;95784.97;6221596;23;20028;-81
2022/11/04 07:39:15;;;;;;;3.42;2.65;;;;;;;10.62;69.85;95798.81;6235349;22;20016;-81
2022/11/04 07:41:43;;;;;;;6.97;3.45;;;;;;;10.62;70.19;95800.63;6228066;23;20027;-81
2022/11/04 07:44:11;;;;;;;9.68;3.65;;;;;;;10.61;69.89;95792.00;6227783;23;20055;-81
2022/11/04 07:46:40;;;;;;;3.80;2.30;;;;;;;10.60;70.12;95790.41;6224438;23;20044;-81
2022/11/04 07:49:07;;;;;;;9.50;3.38;;;;;;;10.59;70.17;95796.63;6227251;23;20027;-81
2022/11/04 07:51:35;;;;;;;6.25;2.97;;;;;;;10.58;69.98;95804.66;6229498;23;20021;-81
2022/11/04 07:54:03;;;;;;;10.90;4.32;;;;;;;10.56;70.06;95798.81;6227223;23;20024;-81
2022/11/04 07:56:32;;;;;;;9.80;5.75;;;;;;;10.58;70.09;95802.84;6229174;23;20532;-81
2022/11/04 07:58:59;;;;;;;9.02;6.30;;;;;;;10.58;69.92;95807.25;6237647;22;20020;-81
2022/11/04 08:01:27;;;;;;;7.68;4.43;;;;;;;10.57;69.99;95822.09;6226752;22;20088;-79
2022/11/04 08:03:55;;;;;;;6.97;3.45;;;;;;;10.56;69.85;95830.13;6216063;23;20482;-80
2022/11/04 08:06:22;;;;;;;7.68;2.88;;;;;;;10.52;69.70;95824.53;6216502;23;20023;-80
2022/11/04 08:08:52;;;;;;;4.15;2.92;;;;;;;10.50;69.79;95829.13;6214912;23;20024;-80
2022/11/04 08:11:24;;;;;;;6.53;3.25;;;;;;;10.47;69.92;95827.72;6215507;23;20464;-80
2022/11/04 08:13:52;;;;;;;6.95;3.50;;;;;;;10.46;70.08;95831.31;6215628;23;20020;-80
2022/11/04 08:16:22;;;;;;;7.32;4.22;;;;;;;10.47;69.96;95821.69;6215247;23;20056;-80
2022/11/04 08:18:52;;;;;;;10.15;5.78;;;;;;;10.48;70.06;95838.97;6214821;23;20028;-79
2022/11/04 08:21:20;;;;;;;10.88;6.28;;;;;;;10.49;70.12;95830.13;6214362;23;20500;-79
2022/11/04 08:23:50;;;;;;;11.18;5.93;;;;;;;10.50;69.74;95836.94;6215875;23;20020;-77
2022/11/04 08:26:19;;;;;;;12.60;6.90;;;;;;;10.49;69.90;95835.34;6215455;23;20020;-80
2022/11/04 08:28:46;;;;;;;16.05;8.02;;;;;;;10.50;69.71;95834.34;6215031;23;20064;-79
2022/11/04 08:31:17;;;;;;;12.10;6.45;;;;;;;10.51;69.33;95825.50;6214661;23;20027;-79
2022/11/04 08:33:45;;;;;;;15.52;6.18;;;;;;;10.52;69.22;95819.31;6215363;23;20028;-79
2022/11/04 08:36:15;;;;;;;9.95;5.10;;;;;;;10.52;68.76;95827.91;6215139;23;20025;-79
2022/11/04 08:38:43;;;;;;;11.48;5.72;;;;;;;10.52;68.84;95825.31;6214715;23;20023;-79
2022/11/04 08:41:13;;;;;;;11.75;6.22;;;;;;;10.54;68.89;95829.50;6226981;23;20029;-80
2022/11/04 08:43:41;;;;;;;10.30;6.30;;;;;;;10.57;68.80;95837.75;6232689;23;20029;-79
2022/11/04 08:46:10;;;;;;;10.63;6.00;;;;;;;10.59;68.65;95827.91;6218309;23;20023;-79
2022/11/04 08:48:40;;;;;;;10.82;5.75;;;;;;;10.62;68.46;95834.53;6215177;23;20025;-79
2022/11/04 09:17:09;;;;;;;9.70;3.27;;;;;;;10.93;67.51;95846.97;6227711;22;20398;-81
2022/11/04 09:19:52;;;;;;;6.90;3.85;;;;;;;10.96;67.12;95849.19;6242529;22;20230;-81
2022/11/04 12:07:52;;;;;;;1.13;0.70;;;;;;;14.29;53.42;95736.59;6227030;22;20004;-81
2022/11/04 12:14:51;;;;;;;4.30;2.17;;;;;;;14.21;52.88;95752.66;6241511;22;20055;-80
2022/11/04 12:23:19;;;;;;;3.15;1.45;;;;;;;13.97;51.98;95770.97;6240244;22;20020;-82
2022/11/04 12:26:29;;;;;;;3.38;2.00;;;;;;;13.90;52.82;95778.09;6274438;22;20004;-79
2022/11/04 13:45:51;;;;;;;3.90;0.65;;;;;;;13.36;53.51;95777.19;6232279;22;20013;-83
2022/11/04 14:50:55;;;;;;;3.45;1.13;;;;;;;12.87;54.78;95831.22;6235486;22;20059;-78
2022/11/04 14:53:28;;;;;;;1.90;0.95;;;;;;;12.84;54.66;95827.22;6217958;23;20021;-78
2022/11/04 14:56:15;;;;;;;4.30;1.33;;;;;;;12.82;55.23;95828.44;6217558;23;20021;-78
2022/11/04 14:58:58;;;;;;;2.25;1.15;;;;;;;12.81;54.88;95832.84;6215753;23;20479;-79
2022/11/04 15:01:28;;;;;;;2.33;0.85;;;;;;;12.80;55.07;95835.72;6216976;23;20104;-77
2022/11/04 15:04:07;;;;;;;2.25;0.65;;;;;;;12.79;55.43;95829.69;6217528;23;20028;-78
2022/11/04 15:06:41;;;;;;;2.15;0.70;;;;;;;12.77;55.36;95829.09;6216234;23;20031;-78
2022/11/04 15:09:26;;;;;;;1.67;0.95;;;;;;;12.73;55.62;95833.94;6216474;23;20021;-78
2022/11/04 15:14:49;;;;;;;2.15;0.70;;;;;;;12.71;56.25;95838.59;6216771;23;20024;-80
2022/11/04 15:17:19;;;;;;;3.08;0.80;;;;;;;12.71;56.85;95840.41;6217906;23;20024;-84
2022/11/04 15:19:50;;;;;;;2.20;0.93;;;;;;;12.72;57.34;95839.38;6220482;22;20100;-83
2022/11/04 15:22:20;;;;;;;1.70;0.90;;;;;;;12.71;56.83;95837.78;6219109;23;20559;-80
2022/11/04 15:24:49;;;;;;;1.77;1.00;;;;;;;12.68;56.74;95840.81;6218515;23;20032;-78
2022/11/04 15:27:23;;;;;;;1.98;1.13;;;;;;;12.64;57.28;95823.94;6217961;23;20044;-77
2022/11/04 15:29:54;;;;;;;3.30;1.13;;;;;;;12.61;57.27;95827.78;6217964;23;20016;-78
2022/11/04 15:32:23;;;;;;;5.18;1.63;;;;;;;12.62;57.62;95829.41;6219718;23;20028;-78
2022/11/04 15:34:52;;;;;;;5.20;2.30;;;;;;;12.61;57.16;95837.47;6219988;23;20013;-78
2022/11/04 15:37:23;;;;;;;2.72;1.23;;;;;;;12.56;57.49;95835.50;6220098;23;20024;-78
2022/11/04 15:39:55;;;;;;;4.57;1.63;;;;;;;12.54;58.06;95842.75;6218859;23;20020;-78
2022/11/04 15:42:38;;;;;;;3.47;1.45;;;;;;;12.51;57.66;95843.19;6219769;23;20016;-77
2022/11/04 15:45:26;;;;;;;5.57;1.45;;;;;;;12.47;58.27;95847.22;6218047;23;20028;-78
2022/11/04 15:48:21;;;;;;;3.22;0.95;;;;;;;12.40;59.18;95851.69;6217392;23;20068;-78
2022/11/04 15:50:54;;;;;;;4.25;1.13;;;;;;;12.31;59.43;95849.34;6218566;23;20024;-78
2022/11/04 15:53:22;;;;;;;;;;;;;;;12.28;59.49;95854.97;6217594;23;20025;-78
2022/11/04 15:55:50;;;;;;;5.85;1.10;;;;;;;12.19;59.72;95848.41;6213822;23;19915;-78
2022/11/04 15:58:19;;;;;;;3.20;1.45;;;;;;;12.14;60.13;95853.47;6216215;23;20016;-79
2022/11/04 16:00:52;;;;;;;4.55;1.80;;;;;;;12.09;60.70;95861.94;6216493;23;20032;-79
2022/11/04 16:03:21;;;;;;;9.75;3.53;;;;;;;12.05;60.72;95859.97;6216271;23;20487;-79
2022/11/04 16:06:01;;;;;;;10.27;4.85;;;;;;;12.01;61.37;95866.59;6214403;23;20028;-79
2022/11/04 16:08:31;;;;;;;13.13;8.80;;;;;;;11.95;61.08;95861.19;6213059;23;20605;-78
2022/11/04 16:11:11;;;;;;;16.38;7.88;;;;;;;11.89;61.51;95858.59;6215409;23;20104;-78
2022/11/04 16:13:39;;;;;;;10.40;7.03;;;;;;;11.83;61.22;95868.06;6216270;23;20360;-78
2022/11/04 16:16:18;;;;;;;10.23;3.92;;;;;;;11.75;61.55;95868.28;6215255;23;20027;-78
2022/11/04 16:18:52;;;;;;;4.65;2.70;;;;;;;11.68;61.90;95867.50;6215853;23;20032;-79
2022/11/04 16:21:26;;;;;;;6.07;2.58;;;;;;;11.63;61.99;95872.53;6216072;23;20028;-77
2022/11/04 16:24:00;;;;;;;6.75;3.80;;;;;;;11.55;62.00;95871.75;6216228;23;20020;-78
2022/11/04 16:26:32;;;;;;;7.50;4.03;;;;;;;11.49;61.85;95883.03;6214708;23;20469;-76
2022/11/04 16:29:00;;;;;;;7.72;3.90;;;;;;;11.46;61.88;95877.41;6215097;23;20017;-78
2022/11/04 16:31:33;;;;;;;7.70;5.00;;;;;;;11.38;62.24;95886.25;6215042;23;20035;-79
2022/11/04 16:34:01;;;;;;;;;;;;;;;11.37;62.28;95889.91;6217626;23;20016;-78
2022/11/04 16:36:29;;;;;;;11.88;3.92;;;;;;;11.29;61.91;95888.28;6215458;23;19927;-77
2022/11/04 16:39:07;;;;;;;6.07;2.83;;;;;;;11.20;62.33;95886.09;6216115;23;20468;-79
2022/11/04 16:41:36;;;;;;;;;;;;;;;11.19;61.94;95895.72;6217330;23;20024;-80
2022/11/04 16:44:05;;;;;;;7.07;3.03;;;;;;;11.05;62.17;95899.38;6217862;23;19969;-81
2022/11/04 16:46:33;;;;;;;9.48;2.78;;;;;;;10.93;62.33;95897.38;6216829;23;20017;-79
2022/11/04 16:49:01;;;;;;;5.72;2.35;;;;;;;10.84;62.50;95902.97;6216967;23;20357;-80
2022/11/04 16:51:28;;;;;;;5.95;2.92;;;;;;;10.74;62.67;95905.97;6215838;23;20108;-78
2022/11/04 16:53:56;;;;;;;7.97;2.85;;;;;;;10.68;62.85;95910.19;6216813;23;20027;-79
2022/11/04 16:56:26;;;;;;;4.32;2.22;;;;;;;10.62;63.04;95918.78;6216542;23;20031;-79
2022/11/04 16:58:53;;;;;;;6.97;2.97;;;;;;;10.54;62.96;95921.59;6215786;23;20021;-78
2022/11/04 17:01:21;;;;;;;13.02;3.80;;;;;;;10.49;63.22;95934.41;6215717;23;20024;-80
2022/11/04 17:03:49;;;;;;;4.95;3.08;;;;;;;10.46;63.16;95938.22;6215815;23;20100;-78
2022/11/04 17:06:17;;;;;;;7.25;4.75;;;;;;;10.44;63.15;95931.59;6215569;23;20021;-79
2022/11/04 17:08:44;;;;;;;5.95;4.45;;;;;;;10.39;63.28;95932.19;6215963;23;20067;-80
2022/11/04 17:11:12;;;;;;;13.93;7.15;;;;;;;10.37;63.28;95936.00;6215969;23;20399;-78
2022/11/04 17:13:41;;;;;;;72.03;34.83;;;;;;;10.35;63.43;95938.00;6216358;23;20027;-78
2022/11/04 17:16:13;;;;;;;24.40;12.77;;;;;;;10.35;63.31;95940.63;6216512;23;20083;-79
2022/11/04 17:18:41;;;;;;;11.63;4.95;;;;;;;10.33;63.33;95945.22;6215970;23;20027;-80
2022/11/04 17:21:13;;;;;;;8.15;4.70;;;;;;;10.28;63.49;95949.19;6216181;23;20212;-78
2022/11/04 17:23:41;;;;;;;7.72;3.97;;;;;;;10.23;63.47;95945.53;6216337;23;20030;-78
2022/11/04 17:26:09;;;;;;;8.35;4.10;;;;;;;10.18;63.51;95959.16;6215639;23;20027;-77
2022/11/04 17:28:36;;;;;;;6.40;3.10;;;;;;;10.10;63.73;95956.72;6215742;23;20016;-77
2022/11/04 17:31:06;;;;;;;8.52;4.03;;;;;;;10.06;64.05;95960.72;6213757;23;20021;-80
2022/11/04 17:33:34;;;;;;;6.93;2.90;;;;;;;10.04;63.88;95960.13;6215892;23;20024;-80
2022/11/04 17:36:02;;;;;;;6.88;3.78;;;;;;;10.02;64.41;95967.31;6215603;23;20392;-81
2022/11/04 17:38:34;;;;;;;6.32;4.10;;;;;;;10.01;64.26;95963.88;6216125;23;20021;-80
2022/11/04 17:44:03;;;;;;;7.68;5.25;;;;;;;10.13;64.56;95971.97;6216657;23;20457;-77
2022/11/04 17:46:33;;;;;;;12.70;7.10;;;;;;;10.15;64.52;95975.19;6217631;23;20333;-79
2022/11/04 17:49:02;;;;;;;8.45;6.18;;;;;;;10.15;64.30;95974.41;6217282;23;20087;-78
2022/11/04 17:51:31;;;;;;;13.45;8.18;;;;;;;10.12;64.48;95975.56;6218268;23;20075;-80
2022/11/04 17:53:58;;;;;;;17.02;10.38;;;;;;;10.10;64.56;95982.78;6217451;23;20020;-79
2022/11/04 17:56:26;;;;;;;18.45;10.02;;;;;;;10.06;64.85;95982.38;6215894;23;20028;-78
2022/11/04 17:58:54;;;;;;;16.67;9.68;;;;;;;10.03;65.06;95982.75;6216896;23;20400;-78
2022/11/04 18:01:23;;;;;;;21.23;10.57;;;;;;;10.01;65.44;95982.13;6216764;23;20642;-79
2022/11/04 18:03:53;;;;;;;12.93;7.93;;;;;;;9.99;65.52;95980.72;6218948;23;20021;-78
2022/11/04 18:06:21;;;;;;;11.35;6.05;;;;;;;9.99;65.42;95991.16;6220360;23;20021;-79
2022/11/04 18:08:49;;;;;;;10.15;4.65;;;;;;;9.97;65.47;95993.13;6219096;23;20021;-78